^^
Station Historical Data
Daily Summary for November 22, 2017 Units:  Both    English   Metric
« Previous Day
Next Day »
Daily Weekly Monthly Yearly Custom
  High: Low: Average:
Temperature: TemperatureF °F /  -17.8 °C 59.7 °F /  15.4 °C 75.1 °F /  23.9 °C
Dew Point: DewpointF °F /  -17.8 °C 14.4 °F /  -9.8 °C 26.7 °F /  -2.9 °C
Humidity: Humidity% 11% 18%
Wind Speed: WindSpeedMPHmph /  0km/h - 2.4mph /  3.9km/h
Wind Gust: WindSpeedGustMPHmph /  0km/h - -
Wind- - South
Pressure: PressureIn in /  0 hPa 29.66 in /  1004.3 hPa -
Precipitation: 0.00 in /  0 mm    
Historical Graphs
 
 
Tabular Data for November 22, 2017
Time Temperature Dew Point Pressure Wind Wind Speed Wind Gust Humidity Rainfall Rate (Hourly) solar Conditions
TemperatureF °F /  -17.8 °C DewpointF °F /  -17.8 °C PressureInin /  0hPa Calm     Humidity% HourlyPrecipInin /  0mm SolarRadiationWatts/m^2 W/m2 Conditions
00:00 65.5 °F /  18.6 °C 30.6 °F /  -0.8 °C 29.77in /  1008hPa NE 6.9mph /  11.1km/h 9.0mph /  14.5km/h 27% 0.00in /  0mm 35.0 W/m2
00:11 65.8 °F /  18.8 °C 28.9 °F /  -1.7 °C 29.78in /  1008.4hPa NNE 4.0mph /  6.4km/h 6.0mph /  9.7km/h 25% 0.00in /  0mm 49.0 W/m2
00:15 66.4 °F /  19.1 °C 29.5 °F /  -1.4 °C 29.78in /  1008.4hPa NE 2.9mph /  4.7km/h 9.0mph /  14.5km/h 25% 0.00in /  0mm 56.0 W/m2
00:26 66.9 °F /  19.4 °C 30.0 °F /  -1.1 °C 29.78in /  1008.4hPa NE 2.9mph /  4.7km/h 9.0mph /  14.5km/h 25% 0.00in /  0mm 338.0 W/m2
00:31 67.6 °F /  19.8 °C 29.5 °F /  -1.4 °C 29.78in /  1008.4hPa North 0.9mph /  1.4km/h 8.0mph /  12.9km/h 24% 0.00in /  0mm 350.0 W/m2
00:36 68.4 °F /  20.2 °C 30.2 °F /  -1 °C 29.78in /  1008.4hPa ENE 4.0mph /  6.4km/h 8.0mph /  12.9km/h 24% 0.00in /  0mm 378.0 W/m2
00:51 69.3 °F /  20.7 °C 30.9 °F /  -0.6 °C 29.78in /  1008.4hPa ESE 4.0mph /  6.4km/h 10.0mph /  16.1km/h 24% 0.00in /  0mm 223.0 W/m2
00:53 69.3 °F /  20.7 °C 30.9 °F /  -0.6 °C 29.78in /  1008.4hPa NNE 2.9mph /  4.7km/h 5.0mph /  8km/h 24% 0.00in /  0mm 415.0 W/m2
00:58 69.4 °F /  20.8 °C 31.1 °F /  -0.5 °C 29.78in /  1008.4hPa NE 4.9mph /  7.9km/h 8.0mph /  12.9km/h 24% 0.00in /  0mm 53.0 W/m2
01:03 69.6 °F /  20.9 °C 30.2 °F /  -1 °C 29.78in /  1008.4hPa NNE 2.9mph /  4.7km/h 3.0mph /  4.8km/h 23% 0.00in /  0mm 461.0 W/m2
01:08 70.2 °F /  21.2 °C 29.5 °F /  -1.4 °C 29.78in /  1008.4hPa East 2.9mph /  4.7km/h 6.0mph /  9.7km/h 22% 0.00in /  0mm 475.0 W/m2
01:14 71.1 °F /  21.7 °C 30.2 °F /  -1 °C 29.78in /  1008.4hPa ENE 0.9mph /  1.4km/h 5.0mph /  8km/h 22% 0.00in /  0mm 499.0 W/m2
01:19 71.8 °F /  22.1 °C 29.7 °F /  -1.3 °C 29.78in /  1008.4hPa Calm   4.0mph /  6.4km/h 21% 0.00in /  0mm 517.0 W/m2
01:24 72.3 °F /  22.4 °C 27.7 °F /  -2.4 °C 29.78in /  1008.4hPa NNE 2.0mph /  3.2km/h 7.0mph /  11.3km/h 19% 0.00in /  0mm 536.0 W/m2
01:30 73.0 °F /  22.8 °C 27.0 °F /  -2.8 °C 29.78in /  1008.4hPa ENE 0.9mph /  1.4km/h 5.0mph /  8km/h 18% 0.00in /  0mm 520.0 W/m2
01:35 73.8 °F /  23.2 °C 26.2 °F /  -3.2 °C 29.78in /  1008.4hPa ENE 0.9mph /  1.4km/h 7.0mph /  11.3km/h 17% 0.00in /  0mm 578.0 W/m2
01:40 73.9 °F /  23.3 °C 26.4 °F /  -3.1 °C 29.78in /  1008.4hPa ENE 0.9mph /  1.4km/h 8.0mph /  12.9km/h 17% 0.00in /  0mm 598.0 W/m2
01:50 74.7 °F /  23.7 °C 25.5 °F /  -3.6 °C 29.78in /  1008.4hPa NE 2.0mph /  3.2km/h 5.0mph /  8km/h 16% 0.00in /  0mm 629.0 W/m2
01:56 75.0 °F /  23.9 °C 24.3 °F /  -4.3 °C 29.78in /  1008.4hPa ENE 2.9mph /  4.7km/h 5.0mph /  8km/h 15% 0.00in /  0mm 650.0 W/m2
02:01 75.6 °F /  24.2 °C 26.2 °F /  -3.2 °C 29.78in /  1008.4hPa ESE 4.9mph /  7.9km/h 6.0mph /  9.7km/h 16% 0.00in /  0mm 670.0 W/m2
02:11 76.1 °F /  24.5 °C 25.2 °F /  -3.8 °C 29.78in /  1008.4hPa ENE 2.9mph /  4.7km/h 7.0mph /  11.3km/h 15% 0.00in /  0mm 707.0 W/m2
02:21 76.5 °F /  24.7 °C 25.3 °F /  -3.7 °C 29.78in /  1008.4hPa ESE 2.0mph /  3.2km/h 7.0mph /  11.3km/h 15% 0.00in /  0mm 737.0 W/m2
02:26 76.8 °F /  24.9 °C 24.1 °F /  -4.4 °C 29.78in /  1008.4hPa East 4.0mph /  6.4km/h 5.0mph /  8km/h 14% 0.00in /  0mm 754.0 W/m2
02:48 78.6 °F /  25.9 °C 23.7 °F /  -4.6 °C 29.78in /  1008.4hPa NNE 4.0mph /  6.4km/h 7.0mph /  11.3km/h 13% 0.00in /  0mm 823.0 W/m2
02:53 79.0 °F /  26.1 °C 25.7 °F /  -3.5 °C 29.78in /  1008.4hPa NE 2.0mph /  3.2km/h 6.0mph /  9.7km/h 14% 0.00in /  0mm 837.0 W/m2
02:58 79.0 °F /  26.1 °C 25.7 °F /  -3.5 °C 29.78in /  1008.4hPa SE 0.9mph /  1.4km/h 4.0mph /  6.4km/h 14% 0.00in /  0mm 847.0 W/m2
03:03 78.4 °F /  25.8 °C 25.3 °F /  -3.7 °C 29.77in /  1008hPa West 0.9mph /  1.4km/h 4.0mph /  6.4km/h 14% 0.00in /  0mm 863.0 W/m2
03:08 78.1 °F /  25.6 °C 26.6 °F /  -3 °C 29.77in /  1008hPa Calm   5.0mph /  8km/h 15% 0.00in /  0mm 874.0 W/m2
03:13 79.0 °F /  26.1 °C 25.7 °F /  -3.5 °C 29.78in /  1008.4hPa Calm   3.0mph /  4.8km/h 14% 0.00in /  0mm 889.0 W/m2
03:18 79.5 °F /  26.4 °C 26.1 °F /  -3.3 °C 29.78in /  1008.4hPa NW 2.0mph /  3.2km/h 3.0mph /  4.8km/h 14% 0.00in /  0mm 902.0 W/m2
03:28 80.2 °F /  26.8 °C 26.8 °F /  -2.9 °C 29.77in /  1008hPa Calm   4.0mph /  6.4km/h 14% 0.00in /  0mm 947.0 W/m2
03:33 80.4 °F /  26.9 °C 26.8 °F /  -2.9 °C 29.77in /  1008hPa East 0.9mph /  1.4km/h 2.0mph /  3.2km/h 14% 0.00in /  0mm 974.0 W/m2
03:39 81.0 °F /  27.2 °C 27.3 °F /  -2.6 °C 29.77in /  1008hPa Calm   2.0mph /  3.2km/h 14% 0.00in /  0mm 946.0 W/m2
03:44 81.5 °F /  27.5 °C 25.9 °F /  -3.4 °C 29.77in /  1008hPa SE 6.0mph /  9.7km/h 7.0mph /  11.3km/h 13% 0.00in /  0mm 958.0 W/m2
03:49 81.9 °F /  27.7 °C 26.2 °F /  -3.2 °C 29.77in /  1008hPa Calm   3.0mph /  4.8km/h 13% 0.00in /  0mm 967.0 W/m2
03:54 82.0 °F /  27.8 °C 29.8 °F /  -1.2 °C 29.77in /  1008hPa West 2.9mph /  4.7km/h 6.0mph /  9.7km/h 15% 0.00in /  0mm 974.0 W/m2
03:59 82.8 °F /  28.2 °C 28.8 °F /  -1.8 °C 29.77in /  1008hPa NNE 6.0mph /  9.7km/h 8.0mph /  12.9km/h 14% 0.00in /  0mm 984.0 W/m2
04:10 83.1 °F /  28.4 °C 28.9 °F /  -1.7 °C 29.76in /  1007.7hPa ESE 0.9mph /  1.4km/h 3.0mph /  4.8km/h 14% 0.00in /  0mm 1035.0 W/m2
04:16 83.3 °F /  28.5 °C 27.3 °F /  -2.6 °C 29.76in /  1007.7hPa NNE 6.9mph /  11.1km/h 10.0mph /  16.1km/h 13% 0.00in /  0mm 1021.0 W/m2
04:21 83.5 °F /  28.6 °C 27.5 °F /  -2.5 °C 29.76in /  1007.7hPa ENE 4.0mph /  6.4km/h 5.0mph /  8km/h 13% 0.00in /  0mm 1020.0 W/m2
04:26 83.5 °F /  28.6 °C 27.5 °F /  -2.5 °C 29.76in /  1007.7hPa WNW 4.0mph /  6.4km/h 7.0mph /  11.3km/h 13% 0.00in /  0mm 1023.0 W/m2
04:31 83.8 °F /  28.8 °C 29.5 °F /  -1.4 °C 29.75in /  1007.3hPa NNE 4.9mph /  7.9km/h 8.0mph /  12.9km/h 14% 0.00in /  0mm 1032.0 W/m2
04:36 84.4 °F /  29.1 °C 28.2 °F /  -2.1 °C 29.75in /  1007.3hPa NW 4.0mph /  6.4km/h 6.0mph /  9.7km/h 13% 0.00in /  0mm 1041.0 W/m2
04:41 84.7 °F /  29.3 °C 28.4 °F /  -2 °C 29.75in /  1007.3hPa NNW 2.9mph /  4.7km/h 11.0mph /  17.7km/h 13% 0.00in /  0mm 1046.0 W/m2
04:52 84.7 °F /  29.3 °C 26.4 °F /  -3.1 °C 29.75in /  1007.3hPa ENE 2.9mph /  4.7km/h 13.0mph /  20.9km/h 12% 0.00in /  0mm 1060.0 W/m2
04:57 84.6 °F /  29.2 °C 28.4 °F /  -2 °C 29.75in /  1007.3hPa ENE 4.9mph /  7.9km/h 6.0mph /  9.7km/h 13% 0.00in /  0mm 1086.0 W/m2
05:02 84.7 °F /  29.3 °C 26.4 °F /  -3.1 °C 29.74in /  1007hPa North 8.1mph /  13km/h 13.0mph /  20.9km/h 12% 0.00in /  0mm 1071.0 W/m2
05:07 85.3 °F /  29.6 °C 27.0 °F /  -2.8 °C 29.74in /  1007hPa North 2.0mph /  3.2km/h 5.0mph /  8km/h 12% 0.00in /  0mm 1063.0 W/m2
05:12 85.5 °F /  29.7 °C 27.1 °F /  -2.7 °C 29.74in /  1007hPa NNW 4.9mph /  7.9km/h 7.0mph /  11.3km/h 12% 0.00in /  0mm 1076.0 W/m2
05:17 85.1 °F /  29.5 °C 26.8 °F /  -2.9 °C 29.74in /  1007hPa ENE 2.9mph /  4.7km/h 5.0mph /  8km/h 12% 0.00in /  0mm 1093.0 W/m2
05:22 85.1 °F /  29.5 °C 26.8 °F /  -2.9 °C 29.74in /  1007hPa North 8.1mph /  13km/h 8.1mph /  13km/h 12% 0.00in /  0mm 1092.0 W/m2
05:27 85.3 °F /  29.6 °C 27.0 °F /  -2.8 °C 29.73in /  1006.7hPa NE 2.0mph /  3.2km/h 8.0mph /  12.9km/h 12% 0.00in /  0mm 1120.0 W/m2
05:38 86.2 °F /  30.1 °C 27.7 °F /  -2.4 °C 29.73in /  1006.7hPa West 4.9mph /  7.9km/h 9.0mph /  14.5km/h 12% 0.00in /  0mm 1125.0 W/m2
05:48 86.7 °F /  30.4 °C 28.0 °F /  -2.2 °C 29.73in /  1006.7hPa NNW 4.9mph /  7.9km/h 8.0mph /  12.9km/h 12% 0.00in /  0mm 1097.0 W/m2
05:53 87.4 °F /  30.8 °C 28.6 °F /  -1.9 °C 29.72in /  1006.3hPa North 2.0mph /  3.2km/h 11.0mph /  17.7km/h 12% 0.00in /  0mm 1102.0 W/m2
06:03 87.4 °F /  30.8 °C 30.6 °F /  -0.8 °C 29.72in /  1006.3hPa WNW 0.9mph /  1.4km/h 9.0mph /  14.5km/h 13% 0.00in /  0mm 1083.0 W/m2
06:08 87.1 °F /  30.6 °C 30.2 °F /  -1 °C 29.72in /  1006.3hPa SSW 8.9mph /  14.3km/h 11.0mph /  17.7km/h 13% 0.00in /  0mm 341.0 W/m2
06:13 86.4 °F /  30.2 °C 29.7 °F /  -1.3 °C 29.71in /  1006hPa East 4.9mph /  7.9km/h 7.0mph /  11.3km/h 13% 0.00in /  0mm 1260.0 W/m2
06:19 87.1 °F /  30.6 °C 30.2 °F /  -1 °C 29.71in /  1006hPa West 0.9mph /  1.4km/h 3.0mph /  4.8km/h 13% 0.00in /  0mm 1250.0 W/m2
06:24 87.1 °F /  30.6 °C 30.2 °F /  -1 °C 29.70in /  1005.6hPa West 0.9mph /  1.4km/h 3.0mph /  4.8km/h 13% 0.00in /  0mm 308.0 W/m2
06:29 86.7 °F /  30.4 °C 30.0 °F /  -1.1 °C 29.70in /  1005.6hPa Calm   6.0mph /  9.7km/h 13% 0.00in /  0mm 308.0 W/m2
06:41 87.3 °F /  30.7 °C 30.4 °F /  -0.9 °C 29.70in /  1005.6hPa West 2.9mph /  4.7km/h 9.0mph /  14.5km/h 13% 0.00in /  0mm 490.0 W/m2
06:47 87.6 °F /  30.9 °C 30.7 °F /  -0.7 °C 29.69in /  1005.3hPa NNE 0.9mph /  1.4km/h 5.0mph /  8km/h 13% 0.00in /  0mm 466.0 W/m2
06:57 87.8 °F /  31 °C 32.7 °F /  0.4 °C 29.69in /  1005.3hPa West 2.9mph /  4.7km/h 4.0mph /  6.4km/h 14% 0.00in /  0mm 425.0 W/m2
07:08 87.4 °F /  30.8 °C 30.6 °F /  -0.8 °C 29.69in /  1005.3hPa Calm   10.0mph /  16.1km/h 13% 0.00in /  0mm 427.0 W/m2
07:13 87.3 °F /  30.7 °C 32.2 °F /  0.1 °C 29.69in /  1005.3hPa NW 4.0mph /  6.4km/h 4.0mph /  6.4km/h 14% 0.00in /  0mm 1202.0 W/m2
07:19 87.8 °F /  31 °C 30.9 °F /  -0.6 °C 29.68in /  1005hPa WSW 2.0mph /  3.2km/h 5.0mph /  8km/h 13% 0.00in /  0mm 1366.0 W/m2
07:24 87.6 °F /  30.9 °C 30.7 °F /  -0.7 °C 29.68in /  1005hPa NW 0.9mph /  1.4km/h 8.0mph /  12.9km/h 13% 0.00in /  0mm 408.0 W/m2
07:34 86.5 °F /  30.3 °C 29.8 °F /  -1.2 °C 29.68in /  1005hPa WSW 8.9mph /  14.3km/h 13.0mph /  20.9km/h 13% 0.00in /  0mm 353.0 W/m2
07:39 85.6 °F /  29.8 °C 30.9 °F /  -0.6 °C 29.68in /  1005hPa West 0.9mph /  1.4km/h 10.0mph /  16.1km/h 14% 0.00in /  0mm 348.0 W/m2
07:44 85.3 °F /  29.6 °C 30.7 °F /  -0.7 °C 29.67in /  1004.6hPa West 4.9mph /  7.9km/h 6.0mph /  9.7km/h 14% 0.00in /  0mm 348.0 W/m2
07:49 84.9 °F /  29.4 °C 30.4 °F /  -0.9 °C 29.68in /  1005hPa WNW 2.0mph /  3.2km/h 6.0mph /  9.7km/h 14% 0.00in /  0mm 1044.0 W/m2
08:06 88.0 °F /  31.1 °C 30.9 °F /  -0.6 °C 29.67in /  1004.6hPa NW 2.9mph /  4.7km/h 13.0mph /  20.9km/h 13% 0.00in /  0mm 1121.0 W/m2
08:11 88.9 °F /  31.6 °C 29.7 °F /  -1.3 °C 29.67in /  1004.6hPa West 6.0mph /  9.7km/h 12.0mph /  19.3km/h 12% 0.00in /  0mm 1116.0 W/m2
08:16 89.2 °F /  31.8 °C 30.0 °F /  -1.1 °C 29.67in /  1004.6hPa WNW 4.9mph /  7.9km/h 9.0mph /  14.5km/h 12% 0.00in /  0mm 1113.0 W/m2
08:21 88.7 °F /  31.5 °C 29.7 °F /  -1.3 °C 29.67in /  1004.6hPa WNW 8.1mph /  13km/h 11.0mph /  17.7km/h 12% 0.00in /  0mm 362.0 W/m2
08:31 86.5 °F /  30.3 °C 29.8 °F /  -1.2 °C 29.67in /  1004.6hPa NNW 4.0mph /  6.4km/h 11.0mph /  17.7km/h 13% 0.00in /  0mm 350.0 W/m2
08:41 86.2 °F /  30.1 °C 29.7 °F /  -1.3 °C 29.67in /  1004.6hPa WNW 2.0mph /  3.2km/h 11.0mph /  17.7km/h 13% 0.00in /  0mm 401.0 W/m2
08:46 85.6 °F /  29.8 °C 29.1 °F /  -1.6 °C 29.67in /  1004.6hPa SW 2.9mph /  4.7km/h 9.0mph /  14.5km/h 13% 0.00in /  0mm 357.0 W/m2
08:52 84.7 °F /  29.3 °C 28.4 °F /  -2 °C 29.67in /  1004.6hPa West 2.9mph /  4.7km/h 10.0mph /  16.1km/h 13% 0.00in /  0mm 311.0 W/m2
08:57 84.6 °F /  29.2 °C 30.2 °F /  -1 °C 29.67in /  1004.6hPa WSW 8.1mph /  13km/h 13.0mph /  20.9km/h 14% 0.00in /  0mm 325.0 W/m2
09:02 85.5 °F /  29.7 °C 28.9 °F /  -1.7 °C 29.67in /  1004.6hPa WSW 11.0mph /  17.7km/h 15.0mph /  24.1km/h 13% 0.00in /  0mm 930.0 W/m2
09:08 85.6 °F /  29.8 °C 29.1 °F /  -1.6 °C 29.67in /  1004.6hPa Calm   5.0mph /  8km/h 13% 0.00in /  0mm 294.0 W/m2
09:13 85.6 °F /  29.8 °C 29.1 °F /  -1.6 °C 29.67in /  1004.6hPa West 2.0mph /  3.2km/h 8.0mph /  12.9km/h 13% 0.00in /  0mm 271.0 W/m2
09:28 87.6 °F /  30.9 °C 28.8 °F /  -1.8 °C 29.66in /  1004.3hPa WSW 8.1mph /  13km/h 13.0mph /  20.9km/h 12% 0.00in /  0mm 795.0 W/m2
09:33 86.7 °F /  30.4 °C 28.0 °F /  -2.2 °C 29.66in /  1004.3hPa WSW 4.0mph /  6.4km/h 9.0mph /  14.5km/h 12% 0.00in /  0mm 613.0 W/m2
09:38 86.4 °F /  30.2 °C 27.7 °F /  -2.4 °C 29.66in /  1004.3hPa WSW 8.9mph /  14.3km/h 12.0mph /  19.3km/h 12% 0.00in /  0mm 613.0 W/m2
09:43 86.0 °F /  30 °C 27.5 °F /  -2.5 °C 29.66in /  1004.3hPa SSW 2.9mph /  4.7km/h 10.0mph /  16.1km/h 12% 0.00in /  0mm 262.0 W/m2
09:49 85.6 °F /  29.8 °C 27.1 °F /  -2.7 °C 29.66in /  1004.3hPa WSW 4.0mph /  6.4km/h 8.0mph /  12.9km/h 12% 0.00in /  0mm 659.0 W/m2
09:59 87.3 °F /  30.7 °C 28.4 °F /  -2 °C 29.66in /  1004.3hPa NW 6.9mph /  11.1km/h 7.0mph /  11.3km/h 12% 0.00in /  0mm 279.0 W/m2
10:04 86.7 °F /  30.4 °C 28.0 °F /  -2.2 °C 29.66in /  1004.3hPa WNW 2.0mph /  3.2km/h 7.0mph /  11.3km/h 12% 0.00in /  0mm 501.0 W/m2
10:09 86.4 °F /  30.2 °C 27.7 °F /  -2.4 °C 29.66in /  1004.3hPa WSW 2.0mph /  3.2km/h 11.0mph /  17.7km/h 12% 0.00in /  0mm 563.0 W/m2
10:14 86.2 °F /  30.1 °C 29.7 °F /  -1.3 °C 29.66in /  1004.3hPa Calm   10.0mph /  16.1km/h 13% 0.00in /  0mm 501.0 W/m2
10:19 86.7 °F /  30.4 °C 28.0 °F /  -2.2 °C 29.66in /  1004.3hPa West 0.9mph /  1.4km/h 7.0mph /  11.3km/h 12% 0.00in /  0mm 466.0 W/m2
10:24 87.1 °F /  30.6 °C 26.2 °F /  -3.2 °C 29.66in /  1004.3hPa WSW 4.9mph /  7.9km/h 9.0mph /  14.5km/h 11% 0.00in /  0mm 478.0 W/m2
10:30 87.1 °F /  30.6 °C 26.2 °F /  -3.2 °C 29.66in /  1004.3hPa West 6.0mph /  9.7km/h 6.0mph /  9.7km/h 11% 0.00in /  0mm 478.0 W/m2
10:40 87.1 °F /  30.6 °C 26.2 °F /  -3.2 °C 29.66in /  1004.3hPa West 6.0mph /  9.7km/h 8.0mph /  12.9km/h 11% 0.00in /  0mm 410.0 W/m2
10:45 86.4 °F /  30.2 °C 27.7 °F /  -2.4 °C 29.66in /  1004.3hPa WSW 2.9mph /  4.7km/h 3.0mph /  4.8km/h 12% 0.00in /  0mm 109.0 W/m2
10:50 85.6 °F /  29.8 °C 27.1 °F /  -2.7 °C 29.66in /  1004.3hPa WSW 12.1mph /  19.5km/h 12.1mph /  19.5km/h 12% 0.00in /  0mm 322.0 W/m2
10:55 85.3 °F /  29.6 °C 27.0 °F /  -2.8 °C 29.66in /  1004.3hPa SW 4.0mph /  6.4km/h 8.0mph /  12.9km/h 12% 0.00in /  0mm 327.0 W/m2
11:00 85.5 °F /  29.7 °C 27.1 °F /  -2.7 °C 29.67in /  1004.6hPa WNW 2.0mph /  3.2km/h 8.0mph /  12.9km/h 12% 0.00in /  0mm 308.0 W/m2
11:11 85.8 °F /  29.9 °C 27.3 °F /  -2.6 °C 29.66in /  1004.3hPa NNE 0.9mph /  1.4km/h 5.0mph /  8km/h 12% 0.00in /  0mm 251.0 W/m2
11:16 85.5 °F /  29.7 °C 27.1 °F /  -2.7 °C 29.67in /  1004.6hPa West 6.0mph /  9.7km/h 12.0mph /  19.3km/h 12% 0.00in /  0mm 100.0 W/m2
11:26 83.7 °F /  28.7 °C 25.7 °F /  -3.5 °C 29.67in /  1004.6hPa WSW 4.0mph /  6.4km/h 10.0mph /  16.1km/h 12% 0.00in /  0mm 70.0 W/m2
11:31 82.9 °F /  28.3 °C 25.2 °F /  -3.8 °C 29.67in /  1004.6hPa West 6.9mph /  11.1km/h 12.0mph /  19.3km/h 12% 0.00in /  0mm 58.0 W/m2
11:36 82.6 °F /  28.1 °C 26.8 °F /  -2.9 °C 29.67in /  1004.6hPa WSW 6.9mph /  11.1km/h 8.0mph /  12.9km/h 13% 0.00in /  0mm 47.0 W/m2
11:41 82.0 °F /  27.8 °C 26.4 °F /  -3.1 °C 29.67in /  1004.6hPa NW 4.0mph /  6.4km/h 11.0mph /  17.7km/h 13% 0.00in /  0mm 46.0 W/m2
11:51 81.1 °F /  27.3 °C 25.7 °F /  -3.5 °C 29.68in /  1005hPa West 6.9mph /  11.1km/h 10.0mph /  16.1km/h 13% 0.00in /  0mm 28.0 W/m2
11:56 81.0 °F /  27.2 °C 25.5 °F /  -3.6 °C 29.68in /  1005hPa WSW 6.9mph /  11.1km/h 7.0mph /  11.3km/h 13% 0.00in /  0mm 14.0 W/m2
12:02 80.6 °F /  27 °C 25.2 °F /  -3.8 °C 29.68in /  1005hPa WSW 4.0mph /  6.4km/h 7.0mph /  11.3km/h 13% 0.00in /  0mm 12.0 W/m2
12:07 80.4 °F /  26.9 °C 23.2 °F /  -4.9 °C 29.68in /  1005hPa WSW 0.9mph /  1.4km/h 7.0mph /  11.3km/h 12% 0.00in /  0mm 11.0 W/m2
12:12 80.1 °F /  26.7 °C 22.8 °F /  -5.1 °C 29.68in /  1005hPa West 2.9mph /  4.7km/h 13.0mph /  20.9km/h 12% 0.00in /  0mm 7.0 W/m2
12:18 79.5 °F /  26.4 °C 22.5 °F /  -5.3 °C 29.69in /  1005.3hPa WSW 4.0mph /  6.4km/h 14.0mph /  22.5km/h 12% 0.00in /  0mm 0.0 W/m2
12:23 79.2 °F /  26.2 °C 22.1 °F /  -5.5 °C 29.69in /  1005.3hPa WSW 4.0mph /  6.4km/h 10.0mph /  16.1km/h 12% 0.00in /  0mm 0.0 W/m2
12:33 78.4 °F /  25.8 °C 21.6 °F /  -5.8 °C 29.70in /  1005.6hPa Calm   5.0mph /  8km/h 12% 0.00in /  0mm 0.0 W/m2
12:38 78.3 °F /  25.7 °C 21.6 °F /  -5.8 °C 29.70in /  1005.6hPa South 0.9mph /  1.4km/h 7.0mph /  11.3km/h 12% 0.00in /  0mm 0.0 W/m2
12:43 78.1 °F /  25.6 °C 21.4 °F /  -5.9 °C 29.70in /  1005.6hPa West 2.9mph /  4.7km/h 4.0mph /  6.4km/h 12% 0.00in /  0mm 0.0 W/m2
12:48 77.7 °F /  25.4 °C 21.0 °F /  -6.1 °C 29.71in /  1006hPa SW 4.9mph /  7.9km/h 5.0mph /  8km/h 12% 0.00in /  0mm 0.0 W/m2
12:54 77.4 °F /  25.2 °C 20.8 °F /  -6.2 °C 29.71in /  1006hPa Calm   4.0mph /  6.4km/h 12% 0.00in /  0mm 0.0 W/m2
12:59 77.2 °F /  25.1 °C 20.7 °F /  -6.3 °C 29.71in /  1006hPa West 6.0mph /  9.7km/h 7.0mph /  11.3km/h 12% 0.00in /  0mm 0.0 W/m2
13:05 76.8 °F /  24.9 °C 20.3 °F /  -6.5 °C 29.72in /  1006.3hPa West 2.0mph /  3.2km/h 4.0mph /  6.4km/h 12% 0.00in /  0mm 0.0 W/m2
13:10 76.6 °F /  24.8 °C 22.1 °F /  -5.5 °C 29.72in /  1006.3hPa West 2.0mph /  3.2km/h 5.0mph /  8km/h 13% 0.00in /  0mm 0.0 W/m2
13:15 76.5 °F /  24.7 °C 21.9 °F /  -5.6 °C 29.72in /  1006.3hPa WSW 4.0mph /  6.4km/h 7.0mph /  11.3km/h 13% 0.00in /  0mm 0.0 W/m2
13:20 76.1 °F /  24.5 °C 21.7 °F /  -5.7 °C 29.72in /  1006.3hPa Calm   5.0mph /  8km/h 13% 0.00in /  0mm 0.0 W/m2
13:25 75.7 °F /  24.3 °C 21.4 °F /  -5.9 °C 29.72in /  1006.3hPa WNW 2.9mph /  4.7km/h 8.0mph /  12.9km/h 13% 0.00in /  0mm 0.0 W/m2
13:30 75.6 °F /  24.2 °C 21.2 °F /  -6 °C 29.72in /  1006.3hPa WSW 4.9mph /  7.9km/h 7.0mph /  11.3km/h 13% 0.00in /  0mm 0.0 W/m2
13:35 75.4 °F /  24.1 °C 21.2 °F /  -6 °C 29.72in /  1006.3hPa West 2.9mph /  4.7km/h 8.0mph /  12.9km/h 13% 0.00in /  0mm 0.0 W/m2
13:40 75.0 °F /  23.9 °C 20.8 °F /  -6.2 °C 29.72in /  1006.3hPa West 2.9mph /  4.7km/h 6.0mph /  9.7km/h 13% 0.00in /  0mm 0.0 W/m2
13:51 74.7 °F /  23.7 °C 20.5 °F /  -6.4 °C 29.72in /  1006.3hPa SW 0.9mph /  1.4km/h 5.0mph /  8km/h 13% 0.00in /  0mm 0.0 W/m2
14:01 74.1 °F /  23.4 °C 20.1 °F /  -6.6 °C 29.73in /  1006.7hPa Calm   2.0mph /  3.2km/h 13% 0.00in /  0mm 0.0 W/m2
14:06 73.9 °F /  23.3 °C 18.1 °F /  -7.7 °C 29.73in /  1006.7hPa WSW 2.9mph /  4.7km/h 3.0mph /  4.8km/h 12% 0.00in /  0mm 0.0 W/m2
14:11 73.8 °F /  23.2 °C 18.0 °F /  -7.8 °C 29.73in /  1006.7hPa WSW 0.9mph /  1.4km/h 2.0mph /  3.2km/h 12% 0.00in /  0mm 0.0 W/m2
14:16 73.8 °F /  23.2 °C 18.0 °F /  -7.8 °C 29.74in /  1007hPa WSW 2.0mph /  3.2km/h 7.0mph /  11.3km/h 12% 0.00in /  0mm 0.0 W/m2
14:26 73.2 °F /  22.9 °C 17.6 °F /  -8 °C 29.75in /  1007.3hPa SSE 2.0mph /  3.2km/h 5.0mph /  8km/h 12% 0.00in /  0mm 0.0 W/m2
14:31 73.2 °F /  22.9 °C 17.6 °F /  -8 °C 29.75in /  1007.3hPa SSW 2.0mph /  3.2km/h 6.0mph /  9.7km/h 12% 0.00in /  0mm 0.0 W/m2
14:42 73.0 °F /  22.8 °C 19.2 °F /  -7.1 °C 29.75in /  1007.3hPa Calm   3.0mph /  4.8km/h 13% 0.00in /  0mm 0.0 W/m2
14:47 73.0 °F /  22.8 °C 19.2 °F /  -7.1 °C 29.75in /  1007.3hPa SSE 2.0mph /  3.2km/h 2.0mph /  3.2km/h 13% 0.00in /  0mm 0.0 W/m2
14:54 72.9 °F /  22.7 °C 19.2 °F /  -7.1 °C 29.76in /  1007.7hPa SSE 0.9mph /  1.4km/h 1.0mph /  1.6km/h 13% 0.00in /  0mm 0.0 W/m2
14:59 72.9 °F /  22.7 °C 19.2 °F /  -7.1 °C 29.76in /  1007.7hPa Calm   5.0mph /  8km/h 13% 0.00in /  0mm 0.0 W/m2
15:04 72.7 °F /  22.6 °C 17.1 °F /  -8.3 °C 29.76in /  1007.7hPa SW 0.9mph /  1.4km/h 5.0mph /  8km/h 12% 0.00in /  0mm 0.0 W/m2
15:09 72.5 °F /  22.5 °C 17.1 °F /  -8.3 °C 29.76in /  1007.7hPa South 0.9mph /  1.4km/h 8.0mph /  12.9km/h 12% 0.00in /  0mm 0.0 W/m2
15:14 72.7 °F /  22.6 °C 15.1 °F /  -9.4 °C 29.77in /  1008hPa SSW 2.0mph /  3.2km/h 8.0mph /  12.9km/h 11% 0.00in /  0mm 0.0 W/m2
15:19 72.7 °F /  22.6 °C 15.1 °F /  -9.4 °C 29.77in /  1008hPa SSW 6.0mph /  9.7km/h 7.0mph /  11.3km/h 11% 0.00in /  0mm 0.0 W/m2
15:24 72.9 °F /  22.7 °C 15.3 °F /  -9.3 °C 29.77in /  1008hPa SSE 2.0mph /  3.2km/h 4.0mph /  6.4km/h 11% 0.00in /  0mm 0.0 W/m2
15:30 72.9 °F /  22.7 °C 15.3 °F /  -9.3 °C 29.77in /  1008hPa SSW 0.9mph /  1.4km/h 4.0mph /  6.4km/h 11% 0.00in /  0mm 0.0 W/m2
15:35 72.7 °F /  22.6 °C 15.1 °F /  -9.4 °C 29.77in /  1008hPa Calm   2.0mph /  3.2km/h 11% 0.00in /  0mm 0.0 W/m2
15:40 72.5 °F /  22.5 °C 15.1 °F /  -9.4 °C 29.77in /  1008hPa Calm   4.0mph /  6.4km/h 11% 0.00in /  0mm 0.0 W/m2
15:45 72.3 °F /  22.4 °C 14.9 °F /  -9.5 °C 29.78in /  1008.4hPa Calm   4.0mph /  6.4km/h 11% 0.00in /  0mm 0.0 W/m2
15:50 72.1 °F /  22.3 °C 14.7 °F /  -9.6 °C 29.78in /  1008.4hPa SE 0.9mph /  1.4km/h 2.0mph /  3.2km/h 11% 0.00in /  0mm 0.0 W/m2
16:00 71.6 °F /  22 °C 14.4 °F /  -9.8 °C 29.78in /  1008.4hPa SSW 2.0mph /  3.2km/h 5.0mph /  8km/h 11% 0.00in /  0mm 0.0 W/m2
16:05 71.4 °F /  21.9 °C 16.2 °F /  -8.8 °C 29.78in /  1008.4hPa Calm   2.0mph /  3.2km/h 12% 0.00in /  0mm 0.0 W/m2
16:10 71.1 °F /  21.7 °C 15.8 °F /  -9 °C 29.78in /  1008.4hPa Calm     12% 0.00in /  0mm 0.0 W/m2
16:15 70.9 °F /  21.6 °C 15.8 °F /  -9 °C 29.78in /  1008.4hPa South 0.9mph /  1.4km/h 3.0mph /  4.8km/h 12% 0.00in /  0mm 0.0 W/m2
16:21 70.5 °F /  21.4 °C 17.2 °F /  -8.2 °C 29.78in /  1008.4hPa Calm   1.0mph /  1.6km/h 13% 0.00in /  0mm 0.0 W/m2
16:26 70.3 °F /  21.3 °C 17.2 °F /  -8.2 °C 29.78in /  1008.4hPa Calm   1.0mph /  1.6km/h 13% 0.00in /  0mm 0.0 W/m2
16:31 70.2 °F /  21.2 °C 18.7 °F /  -7.4 °C 29.78in /  1008.4hPa Calm     14% 0.00in /  0mm 0.0 W/m2
16:36 70.0 °F /  21.1 °C 20.1 °F /  -6.6 °C 29.78in /  1008.4hPa Calm   1.0mph /  1.6km/h 15% 0.00in /  0mm 0.0 W/m2
16:41 69.6 °F /  20.9 °C 19.9 °F /  -6.7 °C 29.78in /  1008.4hPa Calm   1.0mph /  1.6km/h 15% 0.00in /  0mm 0.0 W/m2
16:46 69.4 °F /  20.8 °C 19.8 °F /  -6.8 °C 29.78in /  1008.4hPa Calm     15% 0.00in /  0mm 0.0 W/m2
16:51 69.3 °F /  20.7 °C 19.6 °F /  -6.9 °C 29.78in /  1008.4hPa South 0.9mph /  1.4km/h 1.0mph /  1.6km/h 15% 0.00in /  0mm 0.0 W/m2
16:56 68.9 °F /  20.5 °C 20.8 °F /  -6.2 °C 29.78in /  1008.4hPa Calm   2.0mph /  3.2km/h 16% 0.00in /  0mm 0.0 W/m2
17:07 68.7 °F /  20.4 °C 23.5 °F /  -4.7 °C 29.78in /  1008.4hPa Calm     18% 0.00in /  0mm 0.0 W/m2
17:18 68.4 °F /  20.2 °C 27.0 °F /  -2.8 °C 29.77in /  1008hPa Calm   1.0mph /  1.6km/h 21% 0.00in /  0mm 0.0 W/m2
17:28 67.8 °F /  19.9 °C 27.5 °F /  -2.5 °C 29.76in /  1007.7hPa Calm     22% 0.00in /  0mm 0.0 W/m2
17:33 67.6 °F /  19.8 °C 27.5 °F /  -2.5 °C 29.76in /  1007.7hPa Calm   1.0mph /  1.6km/h 22% 0.00in /  0mm 0.0 W/m2
17:43 66.7 °F /  19.3 °C 27.7 °F /  -2.4 °C 29.76in /  1007.7hPa Calm   1.0mph /  1.6km/h 23% 0.00in /  0mm 0.0 W/m2
17:49 66.6 °F /  19.2 °C 28.6 °F /  -1.9 °C 29.76in /  1007.7hPa Calm     24% 0.00in /  0mm 0.0 W/m2
17:54 66.0 °F /  18.9 °C 29.1 °F /  -1.6 °C 29.75in /  1007.3hPa Calm   1.0mph /  1.6km/h 25% 0.00in /  0mm 0.0 W/m2
17:59 65.8 °F /  18.8 °C 28.9 °F /  -1.7 °C 29.75in /  1007.3hPa Calm     25% 0.00in /  0mm 0.0 W/m2
18:04 65.7 °F /  18.7 °C 29.8 °F /  -1.2 °C 29.75in /  1007.3hPa Calm   1.0mph /  1.6km/h 26% 0.00in /  0mm 0.0 W/m2
18:09 65.5 °F /  18.6 °C 30.6 °F /  -0.8 °C 29.75in /  1007.3hPa Calm   1.0mph /  1.6km/h 27% 0.00in /  0mm 0.0 W/m2
18:14 65.1 °F /  18.4 °C 30.4 °F /  -0.9 °C 29.75in /  1007.3hPa ENE 0.9mph /  1.4km/h 1.0mph /  1.6km/h 27% 0.00in /  0mm 0.0 W/m2
18:19 65.1 °F /  18.4 °C 30.4 °F /  -0.9 °C 29.75in /  1007.3hPa Calm   1.0mph /  1.6km/h 27% 0.00in /  0mm 0.0 W/m2
18:24 64.9 °F /  18.3 °C 31.1 °F /  -0.5 °C 29.75in /  1007.3hPa Calm   2.0mph /  3.2km/h 28% 0.00in /  0mm 0.0 W/m2
18:29 64.9 °F /  18.3 °C 31.1 °F /  -0.5 °C 29.75in /  1007.3hPa SE 2.0mph /  3.2km/h 2.0mph /  3.2km/h 28% 0.00in /  0mm 0.0 W/m2
18:45 65.1 °F /  18.4 °C 31.3 °F /  -0.4 °C 29.74in /  1007hPa Calm   2.0mph /  3.2km/h 28% 0.00in /  0mm 0.0 W/m2
18:50 65.5 °F /  18.6 °C 30.6 °F /  -0.8 °C 29.74in /  1007hPa Calm   3.0mph /  4.8km/h 27% 0.00in /  0mm 0.0 W/m2
18:55 65.5 °F /  18.6 °C 30.6 °F /  -0.8 °C 29.74in /  1007hPa ENE 4.0mph /  6.4km/h 4.0mph /  6.4km/h 27% 0.00in /  0mm 0.0 W/m2
19:00 65.5 °F /  18.6 °C 30.6 °F /  -0.8 °C 29.74in /  1007hPa East 2.0mph /  3.2km/h 2.0mph /  3.2km/h 27% 0.00in /  0mm 0.0 W/m2
19:06 65.3 °F /  18.5 °C 30.4 °F /  -0.9 °C 29.74in /  1007hPa ESE 4.9mph /  7.9km/h 5.0mph /  8km/h 27% 0.00in /  0mm 0.0 W/m2
19:11 65.5 °F /  18.6 °C 30.6 °F /  -0.8 °C 29.74in /  1007hPa SE 0.9mph /  1.4km/h 3.0mph /  4.8km/h 27% 0.00in /  0mm 0.0 W/m2
19:16 65.7 °F /  18.7 °C 30.7 °F /  -0.7 °C 29.73in /  1006.7hPa ESE 2.0mph /  3.2km/h 3.0mph /  4.8km/h 27% 0.00in /  0mm 0.0 W/m2
19:22 65.7 °F /  18.7 °C 30.7 °F /  -0.7 °C 29.73in /  1006.7hPa SE 2.9mph /  4.7km/h 4.0mph /  6.4km/h 27% 0.00in /  0mm 0.0 W/m2
19:31 66.0 °F /  18.9 °C 30.2 °F /  -1 °C 29.73in /  1006.7hPa ESE 6.9mph /  11.1km/h 9.0mph /  14.5km/h 26% 0.00in /  0mm 0.0 W/m2
19:36 66.6 °F /  19.2 °C 29.7 °F /  -1.3 °C 29.73in /  1006.7hPa Calm   10.0mph /  16.1km/h 25% 0.00in /  0mm 0.0 W/m2
19:41 66.7 °F /  19.3 °C 29.8 °F /  -1.2 °C 29.73in /  1006.7hPa ESE 2.0mph /  3.2km/h 7.0mph /  11.3km/h 25% 0.00in /  0mm 0.0 W/m2
19:46 66.9 °F /  19.4 °C 30.0 °F /  -1.1 °C 29.72in /  1006.3hPa SSE 4.0mph /  6.4km/h 7.0mph /  11.3km/h 25% 0.00in /  0mm 0.0 W/m2
19:51 66.9 °F /  19.4 °C 30.0 °F /  -1.1 °C 29.73in /  1006.7hPa SE 2.9mph /  4.7km/h 5.0mph /  8km/h 25% 0.00in /  0mm 0.0 W/m2
20:01 66.9 °F /  19.4 °C 30.0 °F /  -1.1 °C 29.72in /  1006.3hPa South 2.0mph /  3.2km/h 6.0mph /  9.7km/h 25% 0.00in /  0mm 0.0 W/m2
20:12 66.9 °F /  19.4 °C 30.0 °F /  -1.1 °C 29.72in /  1006.3hPa NE 4.0mph /  6.4km/h 8.0mph /  12.9km/h 25% 0.00in /  0mm 0.0 W/m2
20:23 66.7 °F /  19.3 °C 29.8 °F /  -1.2 °C 29.72in /  1006.3hPa SE 2.9mph /  4.7km/h 10.0mph /  16.1km/h 25% 0.00in /  0mm 0.0 W/m2
20:28 66.7 °F /  19.3 °C 29.8 °F /  -1.2 °C 29.72in /  1006.3hPa ENE 2.0mph /  3.2km/h 4.0mph /  6.4km/h 25% 0.00in /  0mm 0.0 W/m2
20:33 66.6 °F /  19.2 °C 29.7 °F /  -1.3 °C 29.72in /  1006.3hPa SE 0.9mph /  1.4km/h 6.0mph /  9.7km/h 25% 0.00in /  0mm 0.0 W/m2
20:38 66.6 °F /  19.2 °C 29.7 °F /  -1.3 °C 29.72in /  1006.3hPa Calm   8.0mph /  12.9km/h 25% 0.00in /  0mm 0.0 W/m2
20:43 66.6 °F /  19.2 °C 29.7 °F /  -1.3 °C 29.72in /  1006.3hPa SE 0.9mph /  1.4km/h 5.0mph /  8km/h 25% 0.00in /  0mm 0.0 W/m2
20:54 66.4 °F /  19.1 °C 29.5 °F /  -1.4 °C 29.72in /  1006.3hPa East 6.0mph /  9.7km/h 7.0mph /  11.3km/h 25% 0.00in /  0mm 0.0 W/m2
20:59 66.2 °F /  19 °C 29.3 °F /  -1.5 °C 29.72in /  1006.3hPa Calm   6.0mph /  9.7km/h 25% 0.00in /  0mm 0.0 W/m2
21:04 66.2 °F /  19 °C 30.4 °F /  -0.9 °C 29.71in /  1006hPa ENE 4.9mph /  7.9km/h 7.0mph /  11.3km/h 26% 0.00in /  0mm 0.0 W/m2
21:09 66.0 °F /  18.9 °C 30.2 °F /  -1 °C 29.71in /  1006hPa Calm   6.0mph /  9.7km/h 26% 0.00in /  0mm 0.0 W/m2
21:15 65.8 °F /  18.8 °C 30.9 °F /  -0.6 °C 29.71in /  1006hPa Calm   4.0mph /  6.4km/h 27% 0.00in /  0mm 0.0 W/m2
21:20 65.7 °F /  18.7 °C 30.7 °F /  -0.7 °C 29.71in /  1006hPa ENE 0.9mph /  1.4km/h 2.0mph /  3.2km/h 27% 0.00in /  0mm 0.0 W/m2
21:25 65.7 °F /  18.7 °C 30.7 °F /  -0.7 °C 29.72in /  1006.3hPa East 4.0mph /  6.4km/h 7.0mph /  11.3km/h 27% 0.00in /  0mm 0.0 W/m2
21:30 65.5 °F /  18.6 °C 31.5 °F /  -0.3 °C 29.72in /  1006.3hPa Calm   7.0mph /  11.3km/h 28% 0.00in /  0mm 0.0 W/m2
21:35 65.3 °F /  18.5 °C 31.3 °F /  -0.4 °C 29.72in /  1006.3hPa Calm   5.0mph /  8km/h 28% 0.00in /  0mm 0.0 W/m2
21:45 64.9 °F /  18.3 °C 32.0 °F /  0 °C 29.71in /  1006hPa East 2.0mph /  3.2km/h 4.0mph /  6.4km/h 29% 0.00in /  0mm 0.0 W/m2
21:50 64.8 °F /  18.2 °C 32.5 °F /  0.3 °C 29.71in /  1006hPa Calm   4.0mph /  6.4km/h 30% 0.00in /  0mm 0.0 W/m2
22:01 64.6 °F /  18.1 °C 34.0 °F /  1.1 °C 29.72in /  1006.3hPa NE 4.0mph /  6.4km/h 4.0mph /  6.4km/h 32% 0.00in /  0mm 0.0 W/m2
22:06 64.4 °F /  18 °C 34.0 °F /  1.1 °C 29.72in /  1006.3hPa Calm   3.0mph /  4.8km/h 32% 0.00in /  0mm 0.0 W/m2
22:12 64.0 °F /  17.8 °C 32.7 °F /  0.4 °C 29.72in /  1006.3hPa SE 0.9mph /  1.4km/h 4.0mph /  6.4km/h 31% 0.00in /  0mm 0.0 W/m2
22:21 63.5 °F /  17.5 °C 32.4 °F /  0.2 °C 29.72in /  1006.3hPa SE 2.0mph /  3.2km/h 5.0mph /  8km/h 31% 0.00in /  0mm 0.0 W/m2
22:27 63.1 °F /  17.3 °C 32.7 °F /  0.4 °C 29.72in /  1006.3hPa Calm   1.0mph /  1.6km/h 32% 0.00in /  0mm 0.0 W/m2
22:32 62.8 °F /  17.1 °C 32.5 °F /  0.3 °C 29.72in /  1006.3hPa Calm     32% 0.00in /  0mm 0.0 W/m2
22:40 62.4 °F /  16.9 °C 32.9 °F /  0.5 °C 29.72in /  1006.3hPa Calm   2.0mph /  3.2km/h 33% 0.00in /  0mm 0.0 W/m2
23:03 61.7 °F /  16.5 °C 33.8 °F /  1 °C 29.72in /  1006.3hPa Calm   1.0mph /  1.6km/h 35% 0.00in /  0mm 0.0 W/m2
23:04 61.7 °F /  16.5 °C 33.8 °F /  1 °C 29.72in /  1006.3hPa Calm   1.0mph /  1.6km/h 35% 0.00in /  0mm 5.0 W/m2
23:09 61.3 °F /  16.3 °C 33.4 °F /  0.8 °C 29.73in /  1006.7hPa Calm   1.0mph /  1.6km/h 35% 0.00in /  0mm 7.0 W/m2
23:15 61.2 °F /  16.2 °C 34.0 °F /  1.1 °C 29.73in /  1006.7hPa East 0.9mph /  1.4km/h 3.0mph /  4.8km/h 36% 0.00in /  0mm 9.0 W/m2
23:29 60.3 °F /  15.7 °C 33.8 °F /  1 °C 29.74in /  1007hPa Calm     37% 0.00in /  0mm 14.0 W/m2
23:34 60.1 °F /  15.6 °C 34.3 °F /  1.3 °C 29.73in /  1006.7hPa Calm     38% 0.00in /  0mm 14.0 W/m2
23:40 59.9 °F /  15.5 °C 36.1 °F /  2.3 °C 29.74in /  1007hPa Calm     41% 0.00in /  0mm 16.0 W/m2
23:45 59.7 °F /  15.4 °C 36.5 °F /  2.5 °C 29.74in /  1007hPa Calm     42% 0.00in /  0mm 18.0 W/m2
23:50 59.9 °F /  15.5 °C 36.7 °F /  2.6 °C 29.74in /  1007hPa Calm     42% 0.00in /  0mm 19.0 W/m2
Olympia, Windhoek, Namibia
Compliments of Weather Underground - 3 mb